Ouddorp, Netherlands
Current Conditions -  °F | °C
As of 5:25 PM on Sunday 23 Nov 2014 (Local Time) from EHRD Reporting Station
Light Rain Light Rain  
Wind Chill: 55°   Ceiling: Unl
Heat Index: 55°   Visibility: 6mi
Dew Point: 52°   Wind: 5mph
Humidity: 88%   Direction: 170°S
Pressure: 29.91"   Gusts: NA
Location:  51.81°N, 3.93°E
Report Text: EHRD 231625Z AUTO 17004KT 9999 -RA FEW033 13/11 Q1013 NOSIG
Loading
Personal Weather Stations






























Interactive Weather Map New forecast layout! Learn more

10-Day Weather Forecast

Advertisements
Track Severe Weather on mobile